Time;durP1;ratioP1;P1;durP2;ratioP2;P2;SDS_P1;SDS_P2;PMS_P1;PMS_P2;Temp;Humidity;BMP_temperature;BMP_pressure;BME280_temperature;BME280_humidity;BME280_pressure;Samples;Min_cycle;Max_cycle;Signal;HPM_P1;HPM_P2
2023/08/21 00:00:49;;;;;;;7.53;3.20;;;17.00;99.90;;;;;;5024106;28;20653;-83
2023/08/21 00:03:14;;;;;;;9.70;3.53;;;17.00;99.90;;;;;;5018667;28;20109;-83
2023/08/21 00:05:40;;;;;;;5.03;3.38;;;17.00;99.90;;;;;;5024442;28;20056;-83
2023/08/21 00:08:05;;;;;;;6.93;3.53;;;16.90;99.90;;;;;;5024481;28;20029;-84
2023/08/21 00:10:32;;;;;;;5.68;3.60;;;16.90;99.90;;;;;;5014590;28;20034;-84
2023/08/21 00:12:58;;;;;;;6.93;3.08;;;16.90;99.90;;;;;;5017112;28;20141;-85
2023/08/21 00:15:24;;;;;;;5.55;2.88;;;16.90;99.90;;;;;;5021985;28;20105;-84
2023/08/21 00:17:49;;;;;;;6.85;2.80;;;16.80;99.90;;;;;;5015727;28;20107;-84
2023/08/21 00:20:15;;;;;;;3.80;2.88;;;16.90;99.90;;;;;;5013687;28;20028;-84
2023/08/21 00:22:40;;;;;;;7.28;3.85;;;16.80;99.90;;;;;;5013166;28;20120;-83
2023/08/21 00:25:06;;;;;;;11.73;4.10;;;16.80;99.90;;;;;;5020357;28;20022;-84
2023/08/21 00:27:32;;;;;;;7.40;3.40;;;16.70;99.90;;;;;;5012809;28;20374;-83
2023/08/21 00:30:00;;;;;;;7.65;3.65;;;16.70;99.90;;;;;;5023939;28;20481;-84
2023/08/21 00:32:26;;;;;;;8.65;4.45;;;16.70;99.90;;;;;;5025474;28;20044;-84
2023/08/21 00:34:51;;;;;;;4.32;2.80;;;16.60;99.90;;;;;;5019459;28;20034;-83
2023/08/21 00:37:17;;;;;;;4.35;3.33;;;16.60;99.90;;;;;;5016990;28;20034;-83
2023/08/21 00:39:42;;;;;;;6.85;3.33;;;16.60;99.90;;;;;;5021244;28;20018;-83
2023/08/21 00:42:08;;;;;;;3.38;2.97;;;16.50;99.90;;;;;;5022178;28;20429;-83
2023/08/21 00:44:33;;;;;;;3.92;3.03;;;16.50;99.90;;;;;;5017944;28;20025;-83
2023/08/21 00:46:59;;;;;;;7.07;3.67;;;16.60;99.90;;;;;;5019080;28;20033;-86
2023/08/21 00:49:25;;;;;;;7.13;3.38;;;16.50;99.90;;;;;;5026196;28;20503;-86
2023/08/21 00:51:51;;;;;;;7.80;3.67;;;16.50;99.90;;;;;;5029045;28;20094;-85
2023/08/21 00:54:17;;;;;;;4.50;3.72;;;16.50;99.90;;;;;;5022847;28;20032;-85
2023/08/21 00:56:43;;;;;;;7.40;3.15;;;16.40;99.90;;;;;;5025526;28;20447;-84
2023/08/21 00:59:09;;;;;;;6.75;4.00;;;16.40;99.90;;;;;;5031425;28;20026;-85
2023/08/21 01:01:36;;;;;;;8.68;3.58;;;16.40;99.90;;;;;;5014873;28;20046;-85
2023/08/21 01:04:03;;;;;;;5.07;3.75;;;16.40;99.90;;;;;;5017472;28;20673;-84
2023/08/21 01:06:28;;;;;;;7.47;3.42;;;16.30;99.90;;;;;;5026251;28;20037;-85
2023/08/21 01:09:21;;;;;;;7.70;3.75;;;16.30;99.90;;;;;;5027025;28;20029;-84
2023/08/21 01:12:04;;;;;;;4.57;3.13;;;16.30;99.90;;;;;;5028574;28;20187;-84
2023/08/21 01:14:58;;;;;;;5.95;3.47;;;16.30;99.90;;;;;;5025716;28;20035;-84
2023/08/21 01:17:24;;;;;;;4.65;3.13;;;16.30;99.90;;;;;;5021800;28;20041;-84
2023/08/21 01:19:51;;;;;;;5.65;3.45;;;16.20;99.90;;;;;;5021729;28;20499;-84
2023/08/21 01:22:17;;;;;;;4.88;2.75;;;16.20;99.90;;;;;;5016959;28;20022;-85
2023/08/21 01:24:43;;;;;;;6.45;3.40;;;16.20;99.90;;;;;;5025107;28;20452;-84
2023/08/21 01:27:10;;;;;;;4.53;3.03;;;16.20;99.90;;;;;;5018905;28;20034;-85
2023/08/21 01:29:36;;;;;;;11.40;4.35;;;16.10;99.90;;;;;;5025408;28;20060;-84
2023/08/21 01:32:15;;;;;;;8.63;4.35;;;16.10;99.90;;;;;;5016946;28;20034;-84
2023/08/21 01:34:42;;;;;;;4.00;3.60;;;16.10;99.90;;;;;;5006758;28;20029;-83
2023/08/21 01:37:09;;;;;;;5.15;3.60;;;16.10;99.90;;;;;;5028606;28;20025;-84
2023/08/21 01:39:34;;;;;;;5.10;3.53;;;16.00;99.90;;;;;;5028976;28;20022;-83
2023/08/21 01:42:00;;;;;;;6.13;3.83;;;16.00;99.90;;;;;;5023356;28;20032;-85
2023/08/21 01:44:26;;;;;;;6.45;4.07;;;16.00;99.90;;;;;;5032035;28;20053;-85
2023/08/21 01:46:52;;;;;;;6.80;4.30;;;16.00;99.90;;;;;;5020835;28;20500;-86
2023/08/21 01:49:19;;;;;;;8.60;3.78;;;16.00;99.90;;;;;;5029887;28;20033;-85
2023/08/21 01:51:45;;;;;;;5.85;4.22;;;16.00;99.90;;;;;;5032075;28;20036;-84
2023/08/21 01:54:10;;;;;;;5.55;4.55;;;15.90;99.90;;;;;;5029637;28;20025;-84
2023/08/21 01:56:36;;;;;;;6.53;4.32;;;15.90;99.90;;;;;;5024221;28;20124;-84
2023/08/21 01:59:03;;;;;;;6.88;4.18;;;15.90;99.90;;;;;;5024462;28;20029;-85
2023/08/21 02:01:29;;;;;;;7.90;3.78;;;15.90;99.90;;;;;;5027483;28;20045;-83
2023/08/21 02:03:54;;;;;;;6.63;3.95;;;15.80;99.90;;;;;;5027238;28;20021;-84
2023/08/21 02:06:20;;;;;;;5.95;3.92;;;15.80;99.90;;;;;;5016363;28;20128;-85
2023/08/21 02:08:45;;;;;;;6.40;4.18;;;15.80;99.90;;;;;;5022356;28;20104;-84
2023/08/21 02:11:11;;;;;;;4.13;3.70;;;15.80;99.90;;;;;;5026907;28;20025;-84
2023/08/21 02:13:37;;;;;;;9.88;4.65;;;15.80;99.90;;;;;;5022409;28;20018;-84
2023/08/21 02:16:02;;;;;;;5.47;4.80;;;15.80;99.90;;;;;;5019949;28;20049;-83
2023/08/21 02:18:28;;;;;;;7.95;5.22;;;15.80;99.90;;;;;;5023342;28;20029;-84
2023/08/21 02:20:53;;;;;;;8.15;5.22;;;15.80;99.90;;;;;;5010733;28;20393;-83
2023/08/21 02:23:19;;;;;;;9.20;6.32;;;15.80;99.90;;;;;;5024103;28;20033;-84
2023/08/21 02:25:44;;;;;;;9.82;6.40;;;15.80;99.90;;;;;;5021787;28;20562;-84
2023/08/21 02:28:10;;;;;;;8.45;5.50;;;15.70;99.90;;;;;;5014101;28;20486;-84
2023/08/21 02:30:39;;;;;;;6.82;6.07;;;15.80;99.90;;;;;;5024187;28;20080;-85
2023/08/21 02:33:05;;;;;;;13.60;8.75;;;15.80;99.90;;;;;;5022885;28;20083;-84
2023/08/21 02:35:30;;;;;;;9.55;7.68;;;15.80;99.90;;;;;;5013791;28;20500;-84
2023/08/21 02:37:56;;;;;;;13.20;7.63;;;15.80;99.90;;;;;;5019728;28;20017;-84
2023/08/21 02:40:21;;;;;;;10.68;7.18;;;15.80;99.90;;;;;;5022527;28;20029;-85
2023/08/21 02:42:47;;;;;;;9.50;7.70;;;15.70;99.90;;;;;;5021627;28;20018;-84
2023/08/21 02:45:12;;;;;;;12.38;8.10;;;15.80;99.90;;;;;;5021695;28;20021;-84
2023/08/21 02:47:38;;;;;;;12.15;9.32;;;15.80;99.90;;;;;;5014252;28;20126;-84
2023/08/21 02:50:05;;;;;;;10.13;7.97;;;15.80;99.90;;;;;;5022554;28;20481;-84
2023/08/21 02:52:31;;;;;;;15.40;8.57;;;15.80;99.90;;;;;;5017083;28;20045;-83
2023/08/21 02:54:58;;;;;;;10.45;7.90;;;15.80;99.90;;;;;;5016171;28;20065;-84
2023/08/21 02:57:27;;;;;;;12.43;8.75;;;15.90;99.90;;;;;;5031351;28;20033;-87
2023/08/21 02:59:54;;;;;;;13.85;9.02;;;15.90;99.90;;;;;;5019277;28;20079;-84
2023/08/21 03:02:19;;;;;;;11.75;9.02;;;15.90;99.90;;;;;;5024112;28;20034;-84
2023/08/21 03:04:45;;;;;;;12.40;8.50;;;15.90;99.90;;;;;;5024348;28;20076;-84
2023/08/21 03:07:11;;;;;;;9.38;7.47;;;15.90;99.90;;;;;;5028296;28;20017;-84
2023/08/21 03:09:37;;;;;;;12.20;9.05;;;16.00;99.90;;;;;;5022535;28;20026;-85
2023/08/21 03:12:03;;;;;;;13.80;9.07;;;15.90;99.90;;;;;;5013123;28;20102;-84
2023/08/21 03:14:29;;;;;;;13.23;8.40;;;16.00;99.90;;;;;;5025880;28;20484;-84
2023/08/21 03:16:55;;;;;;;11.77;8.95;;;15.90;99.90;;;;;;5024352;28;20049;-85
2023/08/21 03:19:20;;;;;;;15.90;9.18;;;15.90;99.90;;;;;;5025363;28;20026;-85
2023/08/21 03:21:46;;;;;;;11.50;9.30;;;15.90;99.90;;;;;;5025737;28;20029;-85
2023/08/21 03:24:11;;;;;;;10.73;8.90;;;15.90;99.90;;;;;;5024376;28;20033;-85
2023/08/21 03:26:37;;;;;;;14.07;9.63;;;15.80;99.90;;;;;;5014934;28;20147;-84
2023/08/21 03:29:03;;;;;;;12.73;8.65;;;15.80;99.90;;;;;;5026772;28;20029;-85
2023/08/21 03:31:29;;;;;;;14.85;8.85;;;15.80;99.90;;;;;;5027687;28;20812;-85
2023/08/21 03:33:55;;;;;;;9.93;8.63;;;15.80;99.90;;;;;;5018308;28;20071;-86
2023/08/21 03:36:21;;;;;;;10.88;8.88;;;15.80;99.90;;;;;;5026635;28;20041;-84
2023/08/21 03:38:46;;;;;;;10.43;8.45;;;15.80;99.90;;;;;;5013740;28;20025;-86
2023/08/21 03:41:12;;;;;;;10.15;8.30;;;15.80;99.90;;;;;;5026304;28;20034;-85
2023/08/21 03:43:37;;;;;;;11.35;8.93;;;15.80;99.90;;;;;;5023573;28;20025;-85
2023/08/21 03:46:03;;;;;;;13.20;8.52;;;15.70;99.90;;;;;;5017839;28;20021;-84
2023/08/21 03:48:29;;;;;;;14.57;9.90;;;15.70;99.90;;;;;;5023656;28;20075;-84
2023/08/21 03:50:55;;;;;;;10.32;8.70;;;15.70;99.90;;;;;;5017621;28;20104;-84
2023/08/21 03:53:21;;;;;;;11.40;8.20;;;15.70;99.90;;;;;;5021773;28;20026;-84
2023/08/21 03:55:46;;;;;;;12.70;8.82;;;15.70;99.90;;;;;;5007882;28;20709;-84
2023/08/21 03:58:13;;;;;;;12.20;8.25;;;15.70;99.90;;;;;;5027881;28;20026;-86
2023/08/21 04:00:39;;;;;;;11.25;8.30;;;15.70;99.90;;;;;;5017108;28;20100;-85
2023/08/21 04:03:04;;;;;;;14.18;9.55;;;15.70;99.90;;;;;;5025072;28;20025;-84
2023/08/21 04:05:30;;;;;;;12.23;9.05;;;15.70;99.90;;;;;;5023818;28;20103;-85
2023/08/21 04:07:55;;;;;;;9.27;8.32;;;15.70;99.90;;;;;;5021379;28;20029;-84
2023/08/21 04:10:21;;;;;;;7.88;7.05;;;15.60;99.90;;;;;;5026837;28;20061;-85
2023/08/21 04:12:46;;;;;;;10.35;8.18;;;15.60;99.90;;;;;;5021203;28;20045;-87
2023/08/21 04:15:12;;;;;;;10.65;7.20;;;15.60;99.90;;;;;;5019893;28;20029;-85
2023/08/21 04:17:38;;;;;;;13.25;8.52;;;15.60;99.90;;;;;;5021891;28;20101;-84
2023/08/21 04:20:04;;;;;;;10.55;7.97;;;15.50;99.90;;;;;;5017999;28;20132;-84
2023/08/21 04:22:29;;;;;;;9.55;7.28;;;15.50;99.90;;;;;;5025250;28;20025;-85
2023/08/21 04:24:55;;;;;;;10.68;7.53;;;15.50;99.90;;;;;;5011907;28;20025;-84
2023/08/21 04:27:20;;;;;;;10.85;8.00;;;15.50;99.90;;;;;;5024015;28;20037;-84
2023/08/21 04:29:46;;;;;;;11.75;7.50;;;15.50;99.90;;;;;;5020623;28;20121;-85
2023/08/21 04:32:12;;;;;;;10.30;7.75;;;15.50;99.90;;;;;;5027194;28;20045;-85
2023/08/21 04:34:37;;;;;;;10.65;7.70;;;15.50;99.90;;;;;;5022550;28;20107;-84
2023/08/21 04:37:04;;;;;;;11.60;7.57;;;15.50;99.90;;;;;;5030167;28;20029;-84
2023/08/21 04:39:30;;;;;;;9.38;7.72;;;15.50;99.90;;;;;;5034260;28;20014;-84
2023/08/21 04:41:55;;;;;;;10.77;7.85;;;15.50;99.90;;;;;;5037323;28;20029;-87
2023/08/21 04:44:21;;;;;;;12.40;7.45;;;15.50;99.90;;;;;;5028116;28;20029;-85
2023/08/21 04:46:50;;;;;;;9.75;7.65;;;15.50;99.90;;;;;;5022863;28;20026;-86
2023/08/21 04:49:16;;;;;;;12.05;8.18;;;15.60;99.90;;;;;;5026414;28;20057;-87
2023/08/21 04:51:41;;;;;;;11.88;8.18;;;15.50;99.90;;;;;;5025982;28;20032;-85
2023/08/21 04:54:07;;;;;;;13.52;7.88;;;15.50;99.90;;;;;;5026408;28;20025;-84
2023/08/21 04:56:32;;;;;;;10.15;7.75;;;15.60;99.90;;;;;;5022348;28;20049;-88
2023/08/21 04:58:58;;;;;;;9.35;6.72;;;15.60;99.90;;;;;;5021558;28;20083;-84
2023/08/21 05:01:24;;;;;;;13.48;8.85;;;15.60;99.90;;;;;;5027361;28;20378;-86
2023/08/21 05:03:50;;;;;;;10.27;8.20;;;15.60;99.90;;;;;;5016173;28;20022;-87
2023/08/21 05:06:16;;;;;;;11.07;7.78;;;15.60;99.90;;;;;;5026967;28;20026;-86
2023/08/21 05:08:41;;;;;;;12.95;8.80;;;15.60;99.90;;;;;;5023485;28;20520;-86
2023/08/21 05:11:07;;;;;;;12.95;8.07;;;15.60;99.90;;;;;;5021287;28;20033;-86
2023/08/21 05:13:33;;;;;;;9.93;8.15;;;15.60;99.90;;;;;;5022132;28;20109;-85
2023/08/21 05:15:59;;;;;;;10.57;8.07;;;15.60;99.90;;;;;;5022408;28;20492;-85
2023/08/21 05:18:25;;;;;;;10.95;8.02;;;15.60;99.90;;;;;;5022762;28;20053;-85
2023/08/21 05:20:53;;;;;;;15.15;9.10;;;15.70;99.90;;;;;;5032947;28;20148;-84
2023/08/21 05:23:19;;;;;;;10.68;7.80;;;15.70;99.90;;;;;;5020740;28;20109;-85
2023/08/21 05:25:45;;;;;;;12.45;8.15;;;15.70;99.90;;;;;;5021367;28;20056;-85
2023/08/21 05:28:11;;;;;;;11.98;7.90;;;15.70;99.90;;;;;;5022235;28;20026;-84
2023/08/21 05:30:36;;;;;;;15.07;7.45;;;15.70;99.90;;;;;;5017870;28;20180;-86
2023/08/21 05:33:03;;;;;;;13.82;8.25;;;15.80;99.90;;;;;;5027940;28;20041;-87
2023/08/21 05:35:32;;;;;;;14.43;8.43;;;15.80;99.90;;;;;;5020050;28;20037;-85
2023/08/21 05:37:58;;;;;;;9.52;6.55;;;15.90;99.90;;;;;;5029047;28;20018;-85
2023/08/21 05:40:23;;;;;;;11.07;6.95;;;15.90;99.90;;;;;;5023388;28;20593;-85
2023/08/21 05:42:49;;;;;;;13.45;6.75;;;15.90;99.90;;;;;;5019880;28;20897;-86
2023/08/21 05:45:14;;;;;;;10.93;7.50;;;15.90;99.90;;;;;;5027225;28;20072;-84
2023/08/21 05:47:40;;;;;;;14.70;7.88;;;16.00;99.90;;;;;;5020408;28;20035;-84
2023/08/21 05:50:06;;;;;;;7.68;6.30;;;16.00;99.90;;;;;;5028568;28;20030;-85
2023/08/21 05:52:31;;;;;;;10.82;6.80;;;16.10;99.90;;;;;;5025449;28;20516;-84
2023/08/21 05:54:57;;;;;;;11.95;7.38;;;16.10;99.90;;;;;;5026851;28;20045;-84
2023/08/21 05:57:22;;;;;;;11.60;6.82;;;16.10;99.90;;;;;;5016584;28;20034;-85
2023/08/21 05:59:48;;;;;;;11.20;7.53;;;16.20;99.90;;;;;;5024315;28;20029;-85
2023/08/21 06:02:14;;;;;;;10.35;7.32;;;16.20;99.90;;;;;;5023897;28;20514;-84
2023/08/21 06:04:41;;;;;;;13.30;6.78;;;16.20;99.90;;;;;;5025491;28;20030;-84
2023/08/21 06:07:07;;;;;;;13.20;6.38;;;16.30;99.90;;;;;;5020837;28;20057;-85
2023/08/21 06:09:33;;;;;;;9.50;6.88;;;16.30;99.90;;;;;;5017973;28;20111;-84
2023/08/21 06:12:00;;;;;;;11.60;6.75;;;16.40;99.90;;;;;;5011733;28;20385;-84
2023/08/21 06:14:28;;;;;;;12.60;6.57;;;16.40;99.90;;;;;;5020864;28;20030;-83
2023/08/21 06:17:05;;;;;;;15.35;7.28;;;16.50;99.90;;;;;;5017166;28;20022;-84
2023/08/21 06:19:30;;;;;;;16.48;7.90;;;16.60;99.90;;;;;;5022498;28;20021;-84
2023/08/21 06:21:56;;;;;;;16.73;7.18;;;16.60;99.90;;;;;;5022745;28;20021;-83
2023/08/21 06:24:23;;;;;;;11.45;5.88;;;16.60;99.90;;;;;;5022548;28;20026;-84
2023/08/21 06:26:48;;;;;;;9.15;6.25;;;16.70;99.90;;;;;;5020660;28;20053;-83
2023/08/21 06:29:14;;;;;;;13.65;5.57;;;16.80;99.90;;;;;;5020164;28;20378;-84
2023/08/21 06:31:39;;;;;;;9.95;5.15;;;16.90;99.90;;;;;;5017680;28;20393;-83
2023/08/21 06:34:05;;;;;;;8.93;5.65;;;16.90;99.90;;;;;;5020530;28;20061;-84
2023/08/21 06:36:31;;;;;;;10.73;5.10;;;17.00;99.90;;;;;;5017890;28;20022;-84
2023/08/21 06:38:56;;;;;;;9.52;5.07;;;17.10;99.90;;;;;;5022457;28;20076;-83
2023/08/21 06:41:22;;;;;;;11.98;5.18;;;17.20;99.90;;;;;;5024092;28;20029;-83
2023/08/21 06:43:47;;;;;;;8.50;3.88;;;17.20;99.90;;;;;;5019750;28;20025;-85
2023/08/21 06:46:13;;;;;;;7.38;4.53;;;17.30;99.90;;;;;;5022849;28;20087;-84
2023/08/21 06:48:43;;;;;;;10.25;4.03;;;17.40;99.90;;;;;;5022775;28;20037;-83
2023/08/21 06:51:10;;;;;;;10.48;5.05;;;17.40;99.90;;;;;;5021750;28;20484;-84
2023/08/21 06:53:36;;;;;;;10.20;3.78;;;17.60;99.90;;;;;;5022671;28;20026;-84
2023/08/21 06:56:02;;;;;;;11.85;4.60;;;17.70;99.90;;;;;;5021994;28;20073;-84
2023/08/21 06:58:27;;;;;;;9.02;3.58;;;17.80;99.90;;;;;;5022256;28;20021;-84
2023/08/21 07:00:56;;;;;;;8.43;3.55;;;17.90;99.90;;;;;;5021029;28;20463;-84
2023/08/21 07:03:22;;;;;;;10.63;3.38;;;18.10;99.90;;;;;;5024590;28;20032;-83
2023/08/21 07:05:59;;;;;;;7.57;3.13;;;18.20;99.90;;;;;;5024329;28;20344;-84
2023/08/21 07:08:25;;;;;;;8.13;3.45;;;18.40;99.90;;;;;;5024075;28;20041;-84
2023/08/21 07:10:51;;;;;;;8.32;2.70;;;18.50;99.90;;;;;;5020590;28;20036;-83
2023/08/21 07:13:17;;;;;;;7.63;2.75;;;18.60;99.90;;;;;;5014402;28;20030;-83
2023/08/21 07:15:42;;;;;;;11.25;2.60;;;18.80;99.90;;;;;;5017876;28;20116;-84
2023/08/21 07:18:08;;;;;;;8.95;2.25;;;19.00;99.90;;;;;;5019583;28;20060;-83
2023/08/21 07:20:34;;;;;;;8.85;2.60;;;19.10;99.90;;;;;;5026006;28;20071;-83
2023/08/21 07:22:59;;;;;;;6.43;2.75;;;19.20;99.90;;;;;;5019893;28;20121;-84
2023/08/21 07:25:28;;;;;;;7.22;2.85;;;19.40;99.90;;;;;;5018162;28;20109;-83
2023/08/21 07:27:54;;;;;;;6.18;1.88;;;19.50;99.90;;;;;;5024461;28;20029;-84
2023/08/21 07:30:20;;;;;;;4.50;2.35;;;19.60;99.90;;;;;;5018193;28;20026;-84
2023/08/21 07:32:47;;;;;;;5.05;2.22;;;19.80;99.90;;;;;;5024361;28;20015;-84
2023/08/21 07:35:12;;;;;;;3.47;1.85;;;19.90;99.90;;;;;;5016940;28;20026;-84
2023/08/21 07:37:38;;;;;;;9.48;1.85;;;20.00;99.90;;;;;;5023795;28;20115;-84
2023/08/21 07:40:05;;;;;;;4.55;1.70;;;20.10;99.90;;;;;;5019485;28;20116;-85
2023/08/21 07:42:30;;;;;;;4.88;1.75;;;20.20;99.90;;;;;;5015729;28;20017;-84
2023/08/21 07:44:56;;;;;;;6.95;1.77;;;20.40;99.90;;;;;;5017802;28;20366;-83
2023/08/21 07:47:22;;;;;;;3.45;1.25;;;20.50;99.90;;;;;;5018375;28;20029;-83
2023/08/21 07:49:47;;;;;;;4.20;1.48;;;20.70;99.90;;;;;;5017815;28;20465;-83
2023/08/21 07:52:13;;;;;;;6.15;1.75;;;20.70;99.90;;;;;;5018567;28;20026;-82
2023/08/21 07:54:38;;;;;;;4.85;1.40;;;20.80;99.90;;;;;;5025245;28;20025;-84
2023/08/21 07:57:04;;;;;;;3.85;1.48;;;20.90;99.90;;;;;;5017223;28;20036;-82
2023/08/21 07:59:29;;;;;;;1.55;0.98;;;21.00;99.90;;;;;;5011528;28;20057;-84
2023/08/21 08:01:55;;;;;;;1.83;1.10;;;21.20;99.90;;;;;;5023483;28;20033;-84
2023/08/21 08:04:21;;;;;;;3.38;1.35;;;21.30;99.90;;;;;;5023065;28;20017;-83
2023/08/21 08:06:47;;;;;;;3.70;1.08;;;21.30;99.90;;;;;;5023607;28;20599;-84
2023/08/21 08:09:13;;;;;;;4.53;1.98;;;21.40;99.90;;;;;;5020244;28;20112;-82
2023/08/21 08:11:39;;;;;;;5.10;0.90;;;21.50;99.90;;;;;;5020537;28;20026;-83
2023/08/21 08:14:04;;;;;;;4.32;1.42;;;21.50;99.90;;;;;;5013043;28;20029;-83
2023/08/21 08:16:30;;;;;;;4.63;1.17;;;21.50;99.90;;;;;;5020089;28;20026;-83
2023/08/21 08:18:56;;;;;;;3.85;1.23;;;21.60;99.90;;;;;;5023979;28;20420;-85
2023/08/21 08:21:21;;;;;;;4.68;1.08;;;21.70;99.90;;;;;;5030139;28;20018;-82
2023/08/21 08:23:47;;;;;;;1.60;0.90;;;21.80;99.90;;;;;;5014338;28;20045;-84
2023/08/21 08:26:12;;;;;;;5.65;1.60;;;21.80;99.90;;;;;;5018376;28;20055;-82
2023/08/21 08:28:38;;;;;;;5.45;0.80;;;21.70;99.90;;;;;;5031871;28;20018;-86
2023/08/21 08:31:04;;;;;;;4.70;1.08;;;21.70;99.90;;;;;;5025171;28;20044;-82
2023/08/21 08:33:30;;;;;;;4.80;1.80;;;21.70;99.90;;;;;;5014413;28;20032;-82
2023/08/21 08:35:55;;;;;;;4.43;1.63;;;21.80;99.90;;;;;;5019773;28;20030;-84
2023/08/21 08:38:21;;;;;;;2.85;1.27;;;21.90;99.90;;;;;;5019469;28;20530;-83
2023/08/21 08:40:47;;;;;;;5.35;1.27;;;21.90;99.90;;;;;;5017673;28;20025;-83
2023/08/21 08:43:13;;;;;;;6.93;0.98;;;21.70;99.90;;;;;;5017512;28;20018;-81
2023/08/21 08:45:41;;;;;;;5.13;0.90;;;21.60;99.90;;;;;;5011701;28;20042;-83
2023/08/21 08:48:07;;;;;;;2.20;1.80;;;21.60;99.90;;;;;;5016499;28;20030;-81
2023/08/21 08:50:34;;;;;;;5.68;1.58;;;21.60;99.90;;;;;;5021207;28;20029;-84
2023/08/21 08:53:00;;;;;;;2.05;0.80;;;21.60;99.90;;;;;;5018539;28;20025;-81
2023/08/21 08:55:26;;;;;;;3.90;1.00;;;21.60;99.90;;;;;;5016706;28;20077;-81
2023/08/21 08:57:53;;;;;;;3.85;1.45;;;21.60;99.90;;;;;;5022115;28;20014;-82
2023/08/21 09:00:20;;;;;;;3.75;1.02;;;21.70;99.90;;;;;;5027610;28;20029;-84
2023/08/21 09:02:46;;;;;;;3.20;0.90;;;21.60;99.90;;;;;;5021309;28;20024;-81
2023/08/21 09:05:12;;;;;;;2.63;0.95;;;21.60;99.90;;;;;;5019469;28;20025;-86
2023/08/21 09:07:39;;;;;;;2.25;0.70;;;21.70;99.90;;;;;;5022331;28;20052;-84
2023/08/21 09:10:12;;;;;;;5.18;1.02;;;21.80;99.90;;;;;;5028099;28;20029;-85
2023/08/21 09:12:38;;;;;;;2.53;1.23;;;21.80;99.90;;;;;;5012573;28;20431;-82
2023/08/21 09:15:08;;;;;;;4.65;1.30;;;21.90;99.90;;;;;;5018870;28;20106;-82
2023/08/21 09:17:33;;;;;;;4.93;1.25;;;21.90;99.90;;;;;;5031342;28;20104;-83
2023/08/21 09:20:04;;;;;;;4.22;0.93;;;21.80;99.90;;;;;;5026472;28;20136;-84
2023/08/21 09:22:30;;;;;;;5.35;1.27;;;21.80;99.90;;;;;;5024187;28;20029;-83
2023/08/21 09:25:07;;;;;;;3.70;1.17;;;21.90;99.90;;;;;;5021553;28;20018;-83
2023/08/21 09:27:39;;;;;;;4.68;1.00;;;21.90;99.90;;;;;;5029354;28;20033;-82
2023/08/21 09:30:07;;;;;;;4.70;1.00;;;21.90;99.90;;;;;;5021623;28;20143;-82
2023/08/21 09:32:54;;;;;;;5.03;1.35;;;21.80;99.90;;;;;;5032103;28;20668;-84
2023/08/21 09:35:20;;;;;;;2.35;0.93;;;21.90;99.90;;;;;;5023697;28;20033;-83
2023/08/21 09:37:52;;;;;;;3.78;1.15;;;22.00;99.90;;;;;;5021363;28;20026;-83
2023/08/21 09:40:19;;;;;;;3.42;1.25;;;22.00;99.90;;;;;;5021653;28;20014;-82
2023/08/21 09:42:44;;;;;;;3.13;1.42;;;22.10;99.90;;;;;;5026649;28;20057;-85
2023/08/21 09:45:10;;;;;;;2.50;1.13;;;22.10;99.90;;;;;;5020828;28;20366;-86
2023/08/21 09:47:38;;;;;;;3.63;1.20;;;22.10;99.90;;;;;;5022406;28;20068;-83
2023/08/21 09:50:04;;;;;;;5.90;1.27;;;22.10;99.90;;;;;;5021546;28;20033;-83
2023/08/21 09:52:30;;;;;;;3.08;1.30;;;22.20;99.90;;;;;;5014722;28;20022;-83
2023/08/21 09:54:57;;;;;;;2.75;1.13;;;22.20;99.90;;;;;;5015951;28;20056;-88
2023/08/21 09:57:23;;;;;;;4.28;1.33;;;22.10;99.90;;;;;;5020066;28;20025;-80
2023/08/21 09:59:54;;;;;;;3.60;1.20;;;21.90;99.90;;;;;;5023494;28;20044;-84
2023/08/21 10:02:21;;;;;;;4.90;1.10;;;21.90;99.90;;;;;;5021768;28;20029;-81
2023/08/21 10:04:49;;;;;;;4.47;1.23;;;21.90;99.90;;;;;;5019856;28;20108;-81
2023/08/21 10:07:16;;;;;;;3.45;1.17;;;21.80;99.90;;;;;;5022310;28;20026;-82
2023/08/21 10:09:42;;;;;;;4.97;1.30;;;21.70;99.90;;;;;;5016125;28;20029;-82
2023/08/21 10:12:14;;;;;;;11.20;2.15;;;21.80;99.90;;;;;;5028396;28;20033;-81
2023/08/21 10:14:40;;;;;;;4.05;1.30;;;21.80;99.90;;;;;;5020785;28;20587;-84
2023/08/21 10:17:07;;;;;;;6.68;1.35;;;21.90;99.90;;;;;;5019190;28;20105;-83
2023/08/21 10:19:34;;;;;;;11.98;2.35;;;21.90;99.90;;;;;;5026840;28;20021;-85
2023/08/21 10:22:00;;;;;;;3.58;1.63;;;21.90;99.90;;;;;;5019333;28;20026;-86
2023/08/21 10:24:28;;;;;;;2.40;1.00;;;21.90;99.90;;;;;;5023017;28;20032;-84
2023/08/21 10:26:57;;;;;;;3.78;1.17;;;22.00;99.90;;;;;;5002613;28;20115;-83
2023/08/21 10:29:22;;;;;;;3.40;1.27;;;22.00;99.90;;;;;;5017126;28;20057;-81
2023/08/21 10:32:00;;;;;;;3.95;0.90;;;22.00;99.90;;;;;;5012465;28;20088;-83
2023/08/21 10:34:37;;;;;;;3.40;1.33;;;22.00;99.90;;;;;;5024489;28;20030;-82
2023/08/21 10:37:05;;;;;;;1.98;0.70;;;22.00;99.90;;;;;;5025287;28;20113;-82
2023/08/21 10:39:33;;;;;;;2.97;1.15;;;22.00;99.90;;;;;;5013887;28;20025;-82
2023/08/21 10:42:14;;;;;;;3.78;0.98;;;22.00;99.90;;;;;;5014993;28;20014;-84
2023/08/21 10:44:57;;;;;;;2.10;0.98;;;22.10;99.90;;;;;;5026328;28;20538;-86
2023/08/21 10:47:30;;;;;;;3.75;0.90;;;22.10;99.90;;;;;;5017018;28;20033;-82
2023/08/21 10:50:03;;;;;;;2.45;1.27;;;22.20;99.90;;;;;;5005205;28;20030;-83
2023/08/21 10:52:43;;;;;;;3.80;0.90;;;22.30;99.90;;;;;;5014749;28;20045;-81
2023/08/21 10:55:10;;;;;;;5.57;0.82;;;22.30;99.90;;;;;;5020547;28;20030;-80
2023/08/21 10:57:37;;;;;;;6.57;1.65;;;22.30;99.90;;;;;;5036334;28;20127;-84
2023/08/21 11:00:09;;;;;;;2.00;1.10;;;22.30;99.90;;;;;;5015804;28;20030;-88
2023/08/21 11:02:36;;;;;;;2.80;0.70;;;22.30;99.90;;;;;;5021176;28;20010;-82
2023/08/21 11:05:05;;;;;;;3.30;1.13;;;22.40;99.90;;;;;;5027669;28;20385;-82
2023/08/21 11:07:54;;;;;;;3.22;0.93;;;22.30;99.90;;;;;;5026329;28;20076;-83
2023/08/21 11:10:24;;;;;;;2.28;0.82;;;22.30;99.90;;;;;;5026380;28;20026;-82
2023/08/21 11:12:50;;;;;;;1.83;0.55;;;22.30;99.90;;;;;;5024328;28;20500;-79
2023/08/21 11:15:17;;;;;;;2.65;0.85;;;22.30;99.90;;;;;;5017396;28;20037;-82
2023/08/21 11:17:50;;;;;;;1.38;0.80;;;22.40;99.90;;;;;;5022565;28;20028;-80
2023/08/21 11:20:15;;;;;;;1.13;0.63;;;22.40;99.90;;;;;;5026726;28;20113;-83
2023/08/21 11:22:41;;;;;;;1.90;0.63;;;22.40;99.90;;;;;;5020584;28;20105;-81
2023/08/21 11:25:07;;;;;;;3.97;0.70;;;22.50;99.90;;;;;;5015352;28;20042;-79
2023/08/21 11:27:32;;;;;;;2.30;1.00;;;22.50;99.90;;;;;;5024429;28;20025;-81
2023/08/21 11:30:00;;;;;;;2.60;0.88;;;22.50;99.90;;;;;;5012155;28;20157;-79
2023/08/21 11:32:25;;;;;;;2.40;0.88;;;22.60;99.90;;;;;;5010039;28;20041;-81
2023/08/21 11:34:56;;;;;;;6.07;1.38;;;22.50;99.90;;;;;;5021238;28;20026;-85
2023/08/21 11:37:26;;;;;;;4.20;0.95;;;22.50;99.90;;;;;;5026301;28;20021;-84
2023/08/21 11:39:59;;;;;;;1.40;0.55;;;22.60;99.90;;;;;;5013578;28;20036;-80
2023/08/21 11:42:32;;;;;;;2.55;0.63;;;22.60;99.90;;;;;;5019269;28;20416;-81
2023/08/21 11:45:00;;;;;;;0.70;0.55;;;22.70;99.90;;;;;;5012778;28;20040;-82
2023/08/21 11:47:32;;;;;;;1.38;0.82;;;22.70;99.90;;;;;;5013035;28;20049;-81
2023/08/21 11:50:03;;;;;;;1.88;0.90;;;22.70;99.90;;;;;;5024003;28;20133;-81
2023/08/21 11:52:31;;;;;;;2.75;0.60;;;22.70;99.90;;;;;;5001874;28;20560;-81
2023/08/21 11:54:57;;;;;;;1.95;0.85;;;22.70;99.90;;;;;;5020299;28;20117;-82
2023/08/21 11:57:22;;;;;;;1.05;0.70;;;22.70;99.90;;;;;;5020381;28;20135;-85
2023/08/21 11:59:53;;;;;;;2.13;0.50;;;22.80;99.90;;;;;;5020222;28;20041;-80
2023/08/21 12:02:23;;;;;;;2.13;0.70;;;22.80;99.90;;;;;;5025036;28;20092;-82
2023/08/21 12:05:03;;;;;;;2.03;0.77;;;22.80;99.90;;;;;;5016729;28;20105;-80
2023/08/21 12:07:28;;;;;;;1.65;0.90;;;22.90;99.90;;;;;;5017367;28;20036;-81
2023/08/21 12:09:54;;;;;;;2.17;0.85;;;23.00;99.90;;;;;;5018481;28;20026;-80
2023/08/21 12:12:20;;;;;;;1.17;0.70;;;23.00;99.90;;;;;;5020152;28;20022;-82
2023/08/21 12:14:46;;;;;;;0.82;0.65;;;23.10;99.90;;;;;;5020078;28;20030;-82
2023/08/21 12:17:11;;;;;;;1.77;0.70;;;23.10;99.90;;;;;;5020150;28;20033;-80
2023/08/21 12:19:37;;;;;;;2.58;0.88;;;23.20;99.90;;;;;;5019499;28;20083;-81
2023/08/21 12:22:03;;;;;;;1.23;0.70;;;23.20;99.90;;;;;;5021674;28;20109;-82
2023/08/21 12:24:29;;;;;;;1.48;0.75;;;23.30;99.90;;;;;;5019316;28;20116;-81
2023/08/21 12:26:55;;;;;;;1.67;0.80;;;23.40;99.90;;;;;;5015224;28;20109;-81
2023/08/21 12:29:21;;;;;;;3.72;0.93;;;23.40;99.90;;;;;;5020992;28;20026;-82
2023/08/21 12:31:47;;;;;;;2.70;0.98;;;23.40;99.90;;;;;;5018857;28;20033;-80
2023/08/21 12:34:12;;;;;;;2.58;0.90;;;23.50;99.90;;;;;;5019982;28;20037;-80
2023/08/21 12:36:38;;;;;;;2.83;1.08;;;23.50;99.90;;;;;;5019785;28;20025;-80
2023/08/21 12:39:05;;;;;;;1.52;0.63;;;23.50;99.90;;;;;;5014818;28;20432;-81
2023/08/21 12:41:30;;;;;;;2.30;0.75;;;23.50;99.90;;;;;;5021075;28;20026;-83